Potawatomi Indian Reservatio, Wisconsin
Current Conditions -  °F | °C
As of 3:06 AM on Saturday 22 Nov 2014 (Local Time) from KASX Reporting Station
Scattered Clouds Scattered Clouds  
Wind Chill: 23°   Ceiling: Unl
Heat Index: 33°   Visibility: 8mi
Dew Point: 27°   Wind: 16mph
Humidity: 78%   Direction: 200°SSW
Pressure: 29.76"   Gusts: 24mph
Location:  46.543°N, 90.8706°W
Report Text: KASX 220906Z AUTO 20014G21KT 8SM SCT020 SCT120 01/M03 A2976 RMK AO2 T00061028
Loading
Personal Weather Stations






























Interactive Weather Map New forecast layout! Learn more

10-Day Weather Forecast

Advertisements
Track Severe Weather on mobile